createdAt,value
2023-01-21T00:01:59.836Z,35.28
2023-01-21T00:04:34.854Z,31.20
2023-01-21T00:07:08.094Z,50.42
2023-01-21T00:09:40.995Z,41.17
2023-01-21T00:12:15.017Z,45.05
2023-01-21T00:14:47.474Z,29.55
2023-01-21T00:17:20.917Z,38.58
2023-01-21T00:19:53.685Z,37.90
2023-01-21T00:22:26.605Z,31.67
2023-01-21T00:24:59.658Z,38.85
2023-01-21T00:27:32.853Z,35.65
2023-01-21T00:30:05.804Z,44.97
2023-01-21T00:32:38.686Z,28.88
2023-01-21T00:35:11.180Z,45.47
2023-01-21T00:37:44.154Z,34.88
2023-01-21T00:40:17.136Z,35.25
2023-01-21T00:42:50.196Z,35.60
2023-01-21T00:45:22.756Z,41.45
2023-01-21T00:47:55.763Z,45.70
2023-01-21T00:50:29.429Z,28.65
2023-01-21T00:53:02.271Z,35.95
2023-01-21T00:55:34.856Z,29.42
2023-01-21T00:58:07.937Z,42.47
2023-01-21T01:00:40.922Z,41.13
2023-01-21T01:03:13.897Z,24.42
2023-01-21T01:05:46.385Z,37.60
2023-01-21T01:08:19.330Z,25.55
2023-01-21T01:10:54.991Z,26.27
2023-01-21T01:13:32.547Z,31.90
2023-01-21T01:16:07.398Z,29.10
2023-01-21T01:18:40.794Z,36.60
2023-01-21T01:21:15.828Z,32.67
2023-01-21T01:23:49.342Z,33.47
2023-01-21T01:26:22.642Z,27.30
2023-01-21T01:28:55.644Z,25.75
2023-01-21T01:31:28.205Z,26.13
2023-01-21T01:34:01.156Z,23.63
2023-01-21T01:36:33.764Z,29.17
2023-01-21T01:39:06.781Z,26.65
2023-01-21T01:41:39.306Z,28.92
2023-01-21T01:44:30.625Z,29.42
2023-01-21T01:47:03.761Z,22.70
2023-01-21T01:49:37.091Z,26.27
2023-01-21T01:52:11.538Z,33.08
2023-01-21T01:54:49.068Z,26.10
2023-01-21T01:57:22.515Z,16.73
2023-01-21T01:59:55.551Z,30.88
2023-01-21T02:02:28.167Z,26.17
2023-01-21T02:05:03.386Z,24.23
2023-01-21T02:07:40.548Z,20.40
2023-01-21T02:10:14.789Z,23.70
2023-01-21T02:12:47.993Z,15.85
2023-01-21T02:15:21.361Z,26.58
2023-01-21T02:18:17.858Z,23.02
2023-01-21T02:21:08.119Z,35.50
2023-01-21T02:23:49.788Z,27.17
2023-01-21T02:26:41.605Z,27.55
2023-01-21T02:29:40.606Z,21.13
2023-01-21T02:32:31.901Z,16.20
2023-01-21T02:35:16.877Z,30.47
2023-01-21T02:37:59.762Z,16.77
2023-01-21T02:41:04.595Z,18.63
2023-01-21T02:43:55.938Z,23.50
2023-01-21T02:46:35.299Z,20.73
2023-01-21T02:49:12.385Z,25.65
2023-01-21T02:51:58.066Z,19.88
2023-01-21T02:54:39.991Z,23.58
2023-01-21T02:57:14.082Z,19.70
2023-01-21T02:59:49.532Z,25.60
2023-01-21T03:02:38.433Z,28.75
2023-01-21T03:05:20.987Z,17.88
2023-01-21T03:07:53.582Z,22.08
2023-01-21T03:10:33.252Z,19.60
2023-01-21T03:13:47.220Z,16.08
2023-01-21T03:16:40.758Z,23.48
2023-01-21T03:19:14.184Z,30.77
2023-01-21T03:21:47.625Z,22.95
2023-01-21T03:24:21.059Z,24.92
2023-01-21T03:26:55.819Z,25.15
2023-01-21T03:29:30.073Z,19.30
2023-01-21T03:32:06.774Z,27.70
2023-01-21T03:34:42.382Z,21.40
2023-01-21T03:37:18.348Z,29.02
2023-01-21T03:39:53.934Z,23.15
2023-01-21T03:42:27.291Z,19.75
2023-01-21T03:45:00.698Z,22.98
2023-01-21T03:47:35.354Z,22.10
2023-01-21T03:50:26.378Z,28.75
2023-01-21T03:52:59.288Z,26.00
2023-01-21T03:55:31.882Z,24.02
2023-01-21T03:58:04.795Z,25.95
2023-01-21T04:00:37.602Z,20.70
2023-01-21T04:03:10.686Z,21.15
2023-01-21T04:05:43.394Z,25.08
2023-01-21T04:08:16.425Z,20.98
2023-01-21T04:10:49.119Z,34.25
2023-01-21T04:13:22.075Z,19.45
2023-01-21T04:15:54.585Z,28.17
2023-01-21T04:18:27.613Z,22.73
2023-01-21T04:21:00.352Z,23.25
2023-01-21T04:23:33.458Z,12.07
2023-01-21T04:26:06.073Z,25.17
2023-01-21T04:28:38.977Z,16.45
2023-01-21T04:31:11.519Z,22.27
2023-01-21T04:33:45.432Z,20.85
2023-01-21T04:36:18.006Z,17.90
2023-01-21T04:38:50.893Z,20.05
2023-01-21T04:41:25.476Z,21.33
2023-01-21T04:43:58.628Z,23.17
2023-01-21T04:46:31.768Z,25.00
2023-01-21T04:49:04.802Z,21.15
2023-01-21T04:51:38.222Z,16.17
2023-01-21T04:54:11.895Z,16.13
2023-01-21T04:56:44.427Z,23.63
2023-01-21T04:59:17.363Z,25.25
2023-01-21T05:01:50.322Z,19.98
2023-01-21T05:04:23.284Z,17.33
2023-01-21T05:06:56.482Z,19.20
2023-01-21T05:09:29.776Z,13.82
2023-01-21T05:12:02.415Z,18.38
2023-01-21T05:14:35.586Z,19.58
2023-01-21T05:17:08.289Z,22.90
2023-01-21T05:19:41.254Z,20.42
2023-01-21T05:22:13.856Z,21.45
2023-01-21T05:24:47.099Z,15.45
2023-01-21T05:27:22.034Z,14.45
2023-01-21T05:29:55.030Z,23.02
2023-01-21T05:32:27.625Z,22.50
2023-01-21T05:35:00.516Z,21.50
2023-01-21T05:37:33.034Z,24.30
2023-01-21T05:40:06.950Z,18.15
2023-01-21T05:42:39.479Z,17.42
2023-01-21T05:45:12.310Z,13.80
2023-01-21T05:47:45.392Z,18.52
2023-01-21T05:50:18.781Z,19.52
2023-01-21T05:52:51.410Z,19.85
2023-01-21T05:55:24.259Z,15.90
2023-01-21T05:57:56.840Z,25.77
2023-01-21T06:00:29.854Z,21.50
2023-01-21T06:03:02.653Z,22.15
2023-01-21T06:05:35.614Z,19.85
2023-01-21T06:08:08.688Z,16.38
2023-01-21T06:10:42.405Z,18.83
2023-01-21T06:13:15.741Z,14.45
2023-01-21T06:15:48.653Z,28.70
2023-01-21T06:18:21.139Z,22.05
2023-01-21T06:20:54.448Z,24.42
2023-01-21T06:23:27.198Z,12.23
2023-01-21T06:26:04.000Z,16.33
2023-01-21T06:28:36.697Z,15.98
2023-01-21T06:31:10.204Z,22.02
2023-01-21T06:33:42.710Z,18.30
2023-01-21T06:36:15.644Z,18.17
2023-01-21T06:38:48.182Z,17.55
2023-01-21T06:41:21.090Z,23.80
2023-01-21T06:43:53.586Z,15.93
2023-01-21T06:46:26.578Z,16.25
2023-01-21T06:48:59.165Z,20.60
2023-01-21T06:51:32.138Z,13.55
2023-01-21T06:54:04.802Z,15.70
2023-01-21T06:56:37.949Z,19.33
2023-01-21T06:59:10.466Z,20.48
2023-01-21T07:01:43.390Z,18.67
2023-01-21T07:04:16.701Z,20.02
2023-01-21T07:06:50.164Z,25.80
2023-01-21T07:09:22.762Z,15.85
2023-01-21T07:11:55.952Z,13.60
2023-01-21T07:14:28.481Z,11.73
2023-01-21T07:17:01.587Z,19.63
2023-01-21T07:19:34.646Z,15.25
2023-01-21T07:22:07.784Z,16.17
2023-01-21T07:24:40.545Z,15.20
2023-01-21T07:27:13.572Z,14.27
2023-01-21T07:29:46.109Z,12.15
2023-01-21T07:32:19.288Z,13.38
2023-01-21T07:34:51.842Z,20.13
2023-01-21T07:37:24.804Z,8.48
2023-01-21T07:39:57.432Z,11.60
2023-01-21T07:42:30.327Z,12.63
2023-01-21T07:45:04.234Z,13.10
2023-01-21T07:47:37.219Z,11.35
2023-01-21T07:50:10.155Z,23.13
2023-01-21T07:52:43.654Z,13.40
2023-01-21T07:55:16.648Z,14.50
2023-01-21T07:57:49.881Z,21.83
2023-01-21T08:00:22.673Z,21.50
2023-01-21T08:02:56.513Z,14.98
2023-01-21T08:05:29.100Z,11.32
2023-01-21T08:08:01.974Z,15.90
2023-01-21T08:10:34.625Z,13.50
2023-01-21T08:13:08.233Z,16.67
2023-01-21T08:15:40.944Z,15.23
2023-01-21T08:18:14.021Z,11.38
2023-01-21T08:20:47.015Z,13.00
2023-01-21T08:23:19.884Z,10.40
2023-01-21T08:25:52.581Z,16.08
2023-01-21T08:28:25.625Z,12.73
2023-01-21T08:31:05.481Z,12.27
2023-01-21T08:33:38.551Z,9.95
2023-01-21T08:36:11.064Z,19.67
2023-01-21T08:38:44.626Z,9.65
2023-01-21T08:41:18.099Z,14.35
2023-01-21T08:43:51.211Z,12.15
2023-01-21T08:46:24.030Z,15.20
2023-01-21T08:48:56.926Z,13.93
2023-01-21T08:51:29.406Z,15.02
2023-01-21T08:54:02.400Z,12.15
2023-01-21T08:56:35.628Z,7.97
2023-01-21T08:59:09.021Z,17.35
2023-01-21T09:01:41.528Z,9.90
2023-01-21T09:04:14.456Z,9.40
2023-01-21T09:06:46.985Z,10.52
2023-01-21T09:09:19.915Z,16.42
2023-01-21T09:11:53.036Z,9.65
2023-01-21T09:14:40.248Z,15.05
2023-01-21T09:17:13.068Z,10.05
2023-01-21T09:19:45.808Z,7.10
2023-01-21T09:22:18.675Z,9.13
2023-01-21T09:24:51.280Z,15.50
2023-01-21T09:27:27.585Z,16.67
2023-01-21T09:30:00.158Z,11.77
2023-01-21T09:32:33.642Z,8.85
2023-01-21T09:35:06.338Z,11.27
2023-01-21T09:37:39.643Z,16.02
2023-01-21T09:40:16.590Z,12.68
2023-01-21T09:42:49.563Z,13.55
2023-01-21T09:45:22.392Z,15.40
2023-01-21T09:47:57.042Z,11.05
2023-01-21T09:50:32.335Z,13.85
2023-01-21T09:53:12.790Z,13.73
2023-01-21T09:55:50.064Z,20.55
2023-01-21T09:58:32.473Z,12.15
2023-01-21T10:01:43.325Z,11.23
2023-01-21T10:04:25.521Z,8.80
2023-01-21T10:07:12.066Z,11.20
2023-01-21T10:09:56.290Z,10.20
2023-01-21T10:12:41.530Z,12.40
2023-01-21T10:15:14.647Z,6.72
2023-01-21T10:17:56.947Z,6.93
2023-01-21T10:20:35.725Z,10.32
2023-01-21T10:23:15.151Z,11.48
2023-01-21T10:25:51.308Z,9.25
2023-01-21T10:28:25.596Z,8.38
2023-01-21T10:31:14.319Z,7.22
2023-01-21T10:33:46.981Z,12.60
2023-01-21T10:36:25.734Z,7.18
2023-01-21T10:39:07.250Z,10.60
2023-01-21T10:41:58.984Z,6.20
2023-01-21T10:44:39.464Z,7.40
2023-01-21T10:47:28.102Z,14.80
2023-01-21T10:50:14.198Z,6.82
2023-01-21T10:53:02.555Z,8.73
2023-01-21T10:55:40.928Z,8.77
2023-01-21T10:58:32.171Z,10.20
2023-01-21T11:01:10.224Z,11.63
2023-01-21T11:03:44.804Z,9.85
2023-01-21T11:06:18.054Z,6.65
2023-01-21T11:09:01.256Z,11.05
2023-01-21T11:11:35.767Z,12.63
2023-01-21T11:14:10.308Z,6.85
2023-01-21T11:16:45.629Z,5.43
2023-01-21T11:19:23.193Z,10.60
2023-01-21T11:22:04.613Z,10.23
2023-01-21T11:27:18.966Z,8.00
2023-01-21T11:29:52.033Z,9.85
2023-01-21T11:32:26.131Z,9.90
2023-01-21T11:34:59.014Z,10.30
2023-01-21T11:37:38.702Z,11.55
2023-01-21T11:40:20.717Z,8.13
2023-01-21T11:42:56.823Z,9.57
2023-01-21T11:45:29.917Z,13.95
2023-01-21T11:48:14.179Z,9.75
2023-01-21T11:50:47.686Z,8.82
2023-01-21T11:53:20.326Z,5.43
2023-01-21T11:55:54.725Z,7.63
2023-01-21T11:58:37.141Z,8.80
2023-01-21T12:01:18.972Z,9.95
2023-01-21T12:03:53.568Z,8.68
2023-01-21T12:06:30.929Z,7.72
2023-01-21T12:09:05.156Z,15.23
2023-01-21T12:11:38.190Z,15.88
2023-01-21T12:14:31.282Z,13.80
2023-01-21T12:17:22.840Z,9.63
2023-01-21T12:20:01.958Z,11.98
2023-01-21T12:22:41.014Z,34.08
2023-01-21T12:25:13.507Z,44.60
2023-01-21T12:28:04.720Z,11.25
2023-01-21T12:30:49.526Z,11.30
2023-01-21T12:33:34.958Z,16.55
2023-01-21T12:36:07.553Z,6.82
2023-01-21T12:38:43.345Z,12.55
2023-01-21T12:41:18.874Z,7.80
2023-01-21T12:43:54.810Z,20.50
2023-01-21T12:46:32.940Z,8.45
2023-01-21T12:49:13.093Z,8.57
2023-01-21T12:51:51.661Z,6.50
2023-01-21T12:54:40.347Z,6.85
2023-01-21T12:57:31.510Z,13.38
2023-01-21T13:00:10.596Z,7.95
2023-01-21T13:03:01.945Z,9.98
2023-01-21T13:05:40.891Z,7.68
2023-01-21T13:08:32.025Z,9.48
2023-01-21T13:11:13.767Z,13.50
2023-01-21T13:13:58.452Z,8.77
2023-01-21T13:16:32.506Z,9.25
2023-01-21T13:19:05.124Z,15.90
2023-01-21T13:21:49.922Z,11.57
2023-01-21T13:24:25.491Z,9.95
2023-01-21T13:27:05.968Z,13.32
2023-01-21T13:29:52.985Z,13.70
2023-01-21T13:32:28.603Z,11.48
2023-01-21T13:35:01.174Z,11.40
2023-01-21T13:37:40.657Z,7.05
2023-01-21T13:40:25.715Z,11.85
2023-01-21T13:43:23.180Z,14.02
2023-01-21T13:46:14.589Z,22.17
2023-01-21T13:48:50.366Z,11.20
2023-01-21T13:51:35.994Z,24.77
2023-01-21T13:54:27.498Z,16.55
2023-01-21T13:57:12.173Z,9.98
2023-01-21T13:59:49.191Z,10.10
2023-01-21T14:02:24.079Z,12.52
2023-01-21T14:05:04.102Z,14.43
2023-01-21T14:08:06.275Z,17.13
2023-01-21T14:10:50.293Z,17.83
2023-01-21T14:13:30.835Z,15.15
2023-01-21T14:16:03.833Z,17.90
2023-01-21T14:18:42.541Z,22.30
2023-01-21T14:21:24.641Z,22.83
2023-01-21T14:24:13.621Z,20.75
2023-01-21T14:26:46.491Z,16.10
2023-01-21T14:29:26.357Z,22.02
2023-01-21T14:32:05.774Z,12.75
2023-01-21T14:34:41.044Z,16.50
2023-01-21T14:37:37.104Z,12.07
2023-01-21T14:40:20.453Z,14.35
2023-01-21T14:42:55.010Z,16.13
2023-01-21T14:45:53.757Z,14.48
2023-01-21T14:48:39.611Z,18.40
2023-01-21T14:51:13.505Z,31.88
2023-01-21T14:53:46.606Z,43.20
2023-01-21T14:56:28.168Z,15.77
2023-01-21T14:59:19.873Z,28.23
2023-01-21T15:02:18.276Z,18.77
2023-01-21T15:05:02.215Z,20.90
2023-01-21T15:07:37.052Z,16.33
2023-01-21T15:10:14.905Z,22.35
2023-01-21T15:12:59.003Z,20.92
2023-01-21T15:15:35.234Z,21.75
2023-01-21T15:18:10.797Z,21.48
2023-01-21T15:20:58.252Z,14.90
2023-01-21T15:23:30.812Z,25.80
2023-01-21T15:26:11.411Z,28.08
2023-01-21T15:28:48.348Z,15.13
2023-01-21T15:31:21.313Z,21.50
2023-01-21T15:34:02.069Z,27.83
2023-01-21T15:36:42.810Z,25.23
2023-01-21T15:39:17.238Z,31.40
2023-01-21T15:42:00.297Z,18.75
2023-01-21T15:44:44.627Z,24.90
2023-01-21T15:47:36.380Z,15.68
2023-01-21T15:50:16.628Z,18.15
2023-01-21T15:53:04.274Z,44.08
2023-01-21T15:55:36.804Z,21.92
2023-01-21T15:58:15.665Z,18.90
2023-01-21T16:00:48.357Z,20.13
2023-01-21T16:03:24.997Z,18.77
2023-01-21T16:06:07.554Z,18.60
2023-01-21T16:08:40.488Z,25.70
2023-01-21T16:11:31.832Z,21.25
2023-01-21T16:14:13.875Z,16.20
2023-01-21T16:16:49.573Z,23.38
2023-01-21T16:19:27.888Z,17.20
2023-01-21T16:22:02.225Z,18.73
2023-01-21T16:24:38.730Z,15.05
2023-01-21T16:27:22.867Z,18.45
2023-01-21T16:29:57.083Z,16.85
2023-01-21T16:32:32.691Z,24.75
2023-01-21T16:35:06.063Z,29.83
2023-01-21T16:37:38.790Z,31.58
2023-01-21T16:40:24.150Z,25.90
2023-01-21T16:43:07.756Z,30.95
2023-01-21T16:45:41.246Z,27.35
2023-01-21T16:48:19.737Z,24.33
2023-01-21T16:50:53.400Z,26.00
2023-01-21T16:53:26.013Z,27.48
2023-01-21T16:55:59.533Z,27.27
2023-01-21T16:58:33.226Z,20.95
2023-01-21T17:01:16.415Z,32.22
2023-01-21T17:03:49.021Z,24.30
2023-01-21T17:06:28.199Z,24.98
2023-01-21T17:09:05.576Z,29.90
2023-01-21T17:11:45.282Z,23.70
2023-01-21T17:14:21.602Z,33.78
2023-01-21T17:16:56.365Z,31.98
2023-01-21T17:19:40.090Z,39.08
2023-01-21T17:22:18.650Z,24.40
2023-01-21T17:24:59.156Z,38.30
2023-01-21T17:27:32.728Z,26.37
2023-01-21T17:30:38.080Z,29.38
2023-01-21T17:33:26.648Z,32.28
2023-01-21T17:36:13.516Z,28.85
2023-01-21T17:38:46.918Z,146.25
2023-01-21T17:41:24.753Z,44.35
2023-01-21T17:43:58.540Z,60.60
2023-01-21T17:46:31.432Z,61.47
2023-01-21T17:49:09.229Z,38.65
2023-01-21T17:51:42.781Z,59.08
2023-01-21T17:54:20.741Z,38.47
2023-01-21T17:57:00.697Z,28.35
2023-01-21T17:59:37.974Z,27.43
2023-01-21T18:02:14.724Z,34.40
2023-01-21T18:04:47.768Z,36.78
2023-01-21T18:07:25.114Z,45.97
2023-01-21T18:10:00.286Z,33.05
2023-01-21T18:12:35.536Z,25.60
2023-01-21T18:15:14.690Z,24.15
2023-01-21T18:17:49.104Z,30.48
2023-01-21T18:20:24.876Z,30.80
2023-01-21T18:22:58.429Z,26.38
2023-01-21T18:25:32.636Z,29.30
2023-01-21T18:28:13.407Z,29.77
2023-01-21T18:30:46.676Z,37.95
2023-01-21T18:33:19.205Z,39.10
2023-01-21T18:35:52.957Z,33.65
2023-01-21T18:38:31.190Z,41.35
2023-01-21T18:41:06.463Z,30.17
2023-01-21T18:43:38.988Z,35.33
2023-01-21T18:46:12.808Z,48.40
2023-01-21T18:48:45.625Z,56.90
2023-01-21T18:51:18.613Z,67.00
2023-01-21T18:53:51.342Z,60.00
2023-01-21T18:56:24.379Z,85.35
2023-01-21T18:58:57.444Z,68.38
2023-01-21T19:01:30.568Z,110.10
2023-01-21T19:04:04.495Z,79.18
2023-01-21T19:06:37.441Z,52.78
2023-01-21T19:09:36.082Z,54.38
2023-01-21T19:12:09.878Z,49.80
2023-01-21T19:14:42.472Z,57.75
2023-01-21T19:17:19.614Z,37.20
2023-01-21T19:19:52.693Z,51.67
2023-01-21T19:22:25.716Z,64.85
2023-01-21T19:24:58.331Z,67.85
2023-01-21T19:27:34.343Z,86.78
2023-01-21T19:30:20.530Z,62.90
2023-01-21T19:32:54.363Z,65.18
2023-01-21T19:35:35.127Z,62.38
2023-01-21T19:38:16.524Z,63.55
2023-01-21T19:40:49.228Z,53.50
2023-01-21T19:43:22.536Z,59.70
2023-01-21T19:45:56.383Z,65.13
2023-01-21T19:48:29.635Z,67.03
2023-01-21T19:51:02.392Z,65.65
2023-01-21T19:53:35.400Z,87.15
2023-01-21T19:56:08.208Z,116.13
2023-01-21T19:58:42.460Z,135.82
2023-01-21T20:01:15.111Z,240.52
2023-01-21T20:03:59.284Z,139.77
2023-01-21T20:06:35.163Z,140.82
2023-01-21T20:09:11.361Z,144.73
2023-01-21T20:11:44.346Z,146.13
2023-01-21T20:14:17.230Z,54.95
2023-01-21T20:16:51.832Z,102.30
2023-01-21T20:19:24.998Z,49.50
2023-01-21T20:22:02.857Z,45.10
2023-01-21T20:24:36.084Z,48.20
2023-01-21T20:27:11.187Z,42.35
2023-01-21T20:29:55.563Z,41.60
2023-01-21T20:32:28.484Z,44.58
2023-01-21T20:35:03.802Z,50.15
2023-01-21T20:37:36.438Z,36.35
2023-01-21T20:40:15.420Z,63.13
2023-01-21T20:42:48.478Z,39.33
2023-01-21T20:45:23.519Z,54.65
2023-01-21T20:47:58.066Z,55.50
2023-01-21T20:50:33.900Z,50.15
2023-01-21T20:53:06.447Z,71.13
2023-01-21T20:55:40.300Z,65.45
2023-01-21T20:58:14.215Z,61.53
2023-01-21T21:00:47.298Z,64.28
2023-01-21T21:03:19.911Z,59.53
2023-01-21T21:05:52.770Z,58.22
2023-01-21T21:08:25.331Z,59.17
2023-01-21T21:10:58.304Z,59.50
2023-01-21T21:13:30.847Z,60.33
2023-01-21T21:16:08.988Z,77.90
2023-01-21T21:18:41.560Z,77.20
2023-01-21T21:21:15.254Z,71.13
2023-01-21T21:23:47.833Z,73.68
2023-01-21T21:26:22.456Z,73.40
2023-01-21T21:28:55.655Z,53.15
2023-01-21T21:31:32.983Z,59.95
2023-01-21T21:34:05.652Z,52.97
2023-01-21T21:36:41.209Z,47.63
2023-01-21T21:39:19.464Z,57.83
2023-01-21T21:42:10.674Z,47.13
2023-01-21T21:44:44.165Z,45.60
2023-01-21T21:47:35.458Z,57.70
2023-01-21T21:50:08.640Z,71.50
2023-01-21T21:52:41.637Z,71.22
2023-01-21T21:55:15.858Z,67.82
2023-01-21T21:57:48.852Z,62.05
2023-01-21T22:00:21.611Z,65.13
2023-01-21T22:02:57.779Z,68.65
2023-01-21T22:05:30.932Z,56.45
2023-01-21T22:08:04.217Z,53.05
2023-01-21T22:10:36.798Z,49.28
2023-01-21T22:13:09.677Z,63.55
2023-01-21T22:15:42.203Z,52.35
2023-01-21T22:18:15.180Z,49.88
2023-01-21T22:20:47.862Z,45.20
2023-01-21T22:23:24.210Z,51.80
2023-01-21T22:25:57.370Z,59.00
2023-01-21T22:28:30.501Z,41.90
2023-01-21T22:31:04.527Z,45.05
2023-01-21T22:33:37.736Z,53.10
2023-01-21T22:36:11.471Z,56.08
2023-01-21T22:38:44.814Z,57.88
2023-01-21T22:41:19.077Z,48.20
2023-01-21T22:43:52.440Z,56.70
2023-01-21T22:46:26.450Z,48.95
2023-01-21T22:48:59.838Z,49.00
2023-01-21T22:51:32.355Z,55.95
2023-01-21T22:54:05.440Z,54.53
2023-01-21T22:56:51.648Z,55.65
2023-01-21T22:59:25.561Z,55.78
2023-01-21T23:01:58.166Z,60.28
2023-01-21T23:04:31.158Z,50.47
2023-01-21T23:07:03.831Z,56.15
2023-01-21T23:09:36.797Z,49.92
2023-01-21T23:12:18.902Z,66.00
2023-01-21T23:14:52.057Z,55.40
2023-01-21T23:17:24.594Z,61.35
2023-01-21T23:19:57.651Z,56.42
2023-01-21T23:22:30.165Z,59.88
2023-01-21T23:25:03.034Z,59.17
2023-01-21T23:27:35.727Z,77.75
2023-01-21T23:30:10.094Z,69.45
2023-01-21T23:32:42.623Z,68.43
2023-01-21T23:35:15.637Z,90.20
2023-01-21T23:37:48.230Z,75.63
2023-01-21T23:40:21.149Z,73.45
2023-01-21T23:42:53.700Z,68.78
2023-01-21T23:45:27.001Z,64.80
2023-01-21T23:47:59.471Z,66.43
2023-01-21T23:50:32.438Z,76.63
2023-01-21T23:53:04.977Z,73.85
2023-01-21T23:55:38.415Z,56.13
2023-01-21T23:58:10.964Z,52.22
